createdAt,value
2022-11-02T00:04:01.706Z,90.22
2022-11-02T00:09:09.817Z,90.00
2022-11-02T00:14:16.614Z,90.08
2022-11-02T00:19:23.265Z,90.18
2022-11-02T00:24:32.748Z,90.61
2022-11-02T00:29:39.335Z,90.40
2022-11-02T00:34:45.918Z,90.59
2022-11-02T00:39:54.622Z,90.42
2022-11-02T00:45:01.258Z,90.38
2022-11-02T00:50:10.400Z,90.45
2022-11-02T00:55:21.923Z,90.35
2022-11-02T01:00:29.318Z,90.80
2022-11-02T01:05:36.296Z,90.79
2022-11-02T01:10:48.095Z,90.53
2022-11-02T01:15:57.368Z,90.80
2022-11-02T01:21:03.830Z,90.92
2022-11-02T01:26:12.554Z,90.47
2022-11-02T01:31:20.198Z,90.69
2022-11-02T01:36:26.751Z,90.59
2022-11-02T01:41:34.683Z,90.84
2022-11-02T01:46:46.194Z,91.13
2022-11-02T01:52:01.878Z,90.92
2022-11-02T01:57:14.325Z,90.55
2022-11-02T02:02:24.575Z,90.59
2022-11-02T02:07:33.741Z,90.78
2022-11-02T02:12:43.471Z,91.04
2022-11-02T02:18:02.991Z,90.56
2022-11-02T02:23:56.280Z,90.82
2022-11-02T02:29:10.413Z,90.95
2022-11-02T02:34:23.138Z,90.59
2022-11-02T02:39:42.616Z,90.91
2022-11-02T02:45:02.423Z,90.31
2022-11-02T07:53:27.032Z,92.21
2022-11-02T07:58:34.717Z,91.51
2022-11-02T08:03:40.675Z,91.00
2022-11-02T08:08:47.142Z,90.85
2022-11-02T08:14:14.802Z,91.01
2022-11-02T08:19:21.320Z,90.86
2022-11-02T08:24:28.268Z,90.93
2022-11-02T08:29:37.221Z,90.98
2022-11-02T08:34:43.376Z,91.10
2022-11-02T08:39:50.057Z,91.14
2022-11-02T08:44:58.217Z,91.15
2022-11-02T08:50:05.209Z,90.72
2022-11-02T08:55:11.988Z,91.07
2022-11-02T09:00:22.188Z,90.94
2022-11-02T09:05:29.359Z,90.61
2022-11-02T09:10:38.801Z,90.54
2022-11-02T09:15:47.341Z,90.61
2022-11-02T09:20:54.128Z,90.69
2022-11-02T09:26:01.567Z,90.40
2022-11-02T09:31:11.626Z,90.21
2022-11-02T09:36:18.499Z,90.30
2022-11-02T09:41:35.537Z,90.05
2022-11-02T09:46:46.951Z,90.10
2022-11-02T09:51:56.809Z,90.11
2022-11-02T09:57:08.908Z,90.08
2022-11-02T10:02:29.032Z,90.30
2022-11-02T10:08:03.584Z,90.18
2022-11-02T10:13:30.725Z,90.07
2022-11-02T10:18:41.099Z,90.16
2022-11-02T10:23:52.803Z,90.48
2022-11-02T10:29:04.942Z,90.37
2022-11-02T10:34:26.049Z,90.13
2022-11-02T10:39:45.458Z,90.31
2022-11-02T10:45:21.196Z,90.09
2022-11-02T10:50:48.567Z,89.24
2022-11-02T10:56:05.199Z,88.94
2022-11-02T11:01:14.149Z,89.17
2022-11-02T11:06:23.312Z,88.97
2022-11-02T11:11:33.155Z,88.63
2022-11-02T11:16:43.343Z,88.24
2022-11-02T11:21:52.699Z,88.32
2022-11-02T11:27:21.448Z,87.67
2022-11-02T11:32:30.948Z,87.91
2022-11-02T11:37:49.267Z,88.08
2022-11-02T11:43:01.571Z,87.50
2022-11-02T11:48:21.621Z,87.44
2022-11-02T11:53:29.225Z,87.50
2022-11-02T11:58:37.041Z,87.24
2022-11-02T12:03:56.296Z,87.53
2022-11-02T12:09:16.746Z,87.31
2022-11-02T12:14:40.017Z,87.73
2022-11-02T12:20:09.350Z,87.93
2022-11-02T12:25:33.191Z,87.78
2022-11-02T12:30:52.216Z,87.39
2022-11-02T12:36:55.287Z,87.47
2022-11-02T12:42:25.174Z,86.93
2022-11-02T12:47:50.884Z,86.62
2022-11-02T12:53:20.440Z,86.26
2022-11-02T12:58:32.848Z,86.31
2022-11-02T13:03:50.327Z,86.06
2022-11-02T13:09:03.561Z,85.87
2022-11-02T13:14:17.231Z,85.47
2022-11-02T13:19:28.674Z,85.29
2022-11-02T13:24:42.217Z,85.50
2022-11-02T13:29:52.241Z,85.45
2022-11-02T13:34:58.689Z,85.68
2022-11-02T13:40:15.215Z,85.29
2022-11-02T13:45:47.794Z,85.18
2022-11-02T13:50:58.980Z,85.43
2022-11-02T13:56:10.807Z,85.57
2022-11-02T14:01:21.800Z,85.34
2022-11-02T14:06:28.521Z,85.47
2022-11-02T14:11:48.544Z,85.14
2022-11-02T14:17:18.134Z,85.76
2022-11-02T14:22:24.889Z,85.66
2022-11-02T14:27:32.418Z,85.76
2022-11-02T14:33:02.495Z,85.69
2022-11-02T14:38:37.875Z,85.80
2022-11-02T14:44:30.738Z,85.37
2022-11-02T14:49:44.027Z,85.62
2022-11-02T14:54:54.527Z,85.78
2022-11-02T15:00:04.295Z,85.82
2022-11-02T15:05:27.855Z,85.79
2022-11-02T15:10:51.764Z,85.64
2022-11-02T15:16:42.768Z,85.31
2022-11-02T15:21:52.117Z,84.99
2022-11-02T15:27:01.255Z,84.68
2022-11-02T15:32:17.068Z,84.56
2022-11-02T15:37:37.377Z,84.91
2022-11-02T15:43:06.804Z,84.63
2022-11-02T15:48:30.740Z,84.36
2022-11-02T15:54:18.358Z,83.71
2022-11-02T16:00:09.585Z,83.67
2022-11-02T16:05:23.096Z,83.31
2022-11-02T16:10:33.116Z,83.24
2022-11-02T16:15:42.576Z,83.31
2022-11-02T16:20:48.860Z,83.21
2022-11-02T16:25:59.646Z,82.75
2022-11-02T16:31:18.943Z,82.83
2022-11-02T16:36:27.966Z,82.88
2022-11-02T16:41:38.096Z,82.95
2022-11-02T16:46:51.006Z,82.13
2022-11-02T16:51:59.860Z,82.33
2022-11-02T16:57:14.906Z,82.32
2022-11-02T17:02:28.065Z,82.58
2022-11-02T17:07:37.435Z,82.87
2022-11-02T17:12:46.464Z,83.32
2022-11-02T17:18:12.974Z,83.28
2022-11-02T17:23:35.134Z,83.85
2022-11-02T17:28:49.028Z,83.73
2022-11-02T17:33:56.782Z,84.19
2022-11-02T17:39:05.812Z,84.63
2022-11-02T17:44:19.710Z,84.84
2022-11-02T17:49:26.022Z,84.56
2022-11-02T17:54:32.686Z,85.33
2022-11-02T17:59:41.760Z,85.51
2022-11-02T18:04:48.030Z,85.94
2022-11-02T18:09:55.561Z,86.06
2022-11-02T18:15:03.818Z,86.68
2022-11-02T18:20:12.219Z,86.25
2022-11-02T18:30:33.629Z,86.17
2022-11-02T18:35:40.790Z,86.13
2022-11-02T18:40:48.666Z,85.73
2022-11-02T18:45:56.972Z,85.79
2022-11-02T18:51:06.011Z,86.10
2022-11-02T18:56:13.823Z,85.84
2022-11-02T19:01:24.548Z,85.67
2022-11-02T19:06:57.024Z,85.74
2022-11-02T19:12:07.856Z,85.62
2022-11-02T19:17:17.503Z,85.65
2022-11-02T19:22:28.212Z,85.46
2022-11-02T19:27:38.075Z,85.20
2022-11-02T19:32:46.800Z,85.42
2022-11-02T19:37:57.697Z,85.40
2022-11-02T19:43:06.298Z,85.46
2022-11-02T19:48:14.862Z,85.71
2022-11-02T19:53:22.778Z,85.51
2022-11-02T19:58:30.188Z,86.19
2022-11-02T20:03:39.632Z,85.86
2022-11-02T20:08:49.443Z,86.05
2022-11-02T20:14:03.721Z,86.42
2022-11-02T20:19:12.842Z,86.48
2022-11-02T20:24:22.304Z,86.27
2022-11-02T20:29:29.769Z,85.76
2022-11-02T20:34:42.209Z,85.51
2022-11-02T20:39:50.457Z,85.62
2022-11-02T20:44:58.968Z,85.93
2022-11-02T20:50:12.841Z,85.57
2022-11-02T20:55:23.934Z,85.74
2022-11-02T21:00:31.724Z,85.70
2022-11-02T21:05:40.139Z,84.75
2022-11-02T21:10:57.607Z,84.50
2022-11-02T21:16:07.250Z,84.08
2022-11-02T21:21:18.889Z,84.76
2022-11-02T21:26:25.985Z,83.96
2022-11-02T21:31:34.296Z,84.51
2022-11-02T21:36:42.337Z,83.83
2022-11-02T21:41:48.999Z,83.79
2022-11-02T21:46:55.878Z,84.18
2022-11-02T21:52:04.036Z,83.86
2022-11-02T21:57:10.500Z,84.23
2022-11-02T22:02:17.994Z,84.32
2022-11-02T22:07:26.538Z,84.18
2022-11-02T22:12:50.433Z,84.63
2022-11-02T22:17:57.316Z,84.19
2022-11-02T22:23:06.072Z,84.67
2022-11-02T22:28:12.792Z,84.73
2022-11-02T22:33:19.361Z,84.59
2022-11-02T22:38:44.678Z,84.32
2022-11-02T22:43:53.105Z,84.68
2022-11-02T22:49:02.944Z,85.04
2022-11-02T22:54:15.192Z,84.68
2022-11-02T22:59:21.955Z,85.00
2022-11-02T23:04:28.680Z,85.13
2022-11-02T23:09:37.316Z,85.07
2022-11-02T23:14:44.379Z,85.07
2022-11-02T23:19:51.396Z,85.12
2022-11-02T23:25:15.349Z,84.61
2022-11-02T23:30:40.297Z,84.58
2022-11-02T23:36:03.984Z,84.31
2022-11-02T23:41:12.110Z,84.10
2022-11-02T23:46:19.209Z,83.81
2022-11-02T23:51:43.078Z,83.93
2022-11-02T23:56:51.116Z,83.67
